createdAt,value
2019-04-10T00:02:01.531Z,82.50
2019-04-10T00:04:29.653Z,82.00
2019-04-10T00:07:10.569Z,82.93
2019-04-10T00:09:28.059Z,83.03
2019-04-10T00:11:56.997Z,83.27
2019-04-10T00:14:26.081Z,82.70
2019-04-10T00:16:54.339Z,81.97
2019-04-10T00:19:22.494Z,82.13
2019-04-10T00:21:50.561Z,83.87
2019-04-10T00:24:18.647Z,83.37
2019-04-10T00:26:47.962Z,82.60
2019-04-10T00:29:16.174Z,82.30
2019-04-10T00:31:44.515Z,83.40
2019-04-10T00:34:13.585Z,86.80
2019-04-10T00:36:41.737Z,85.37
2019-04-10T00:39:10.556Z,83.67
2019-04-10T00:41:38.670Z,80.90
2019-04-10T00:44:07.711Z,83.63
2019-04-10T00:46:36.169Z,81.30
2019-04-10T00:49:05.067Z,81.97
2019-04-10T00:51:33.216Z,83.50
2019-04-10T00:54:01.473Z,85.23
2019-04-10T00:56:29.687Z,84.97
2019-04-10T00:58:57.758Z,83.27
2019-04-10T01:01:25.884Z,86.10
2019-04-10T01:03:54.005Z,83.27
2019-04-10T01:06:22.077Z,83.87
2019-04-10T01:08:51.051Z,84.70
2019-04-10T01:11:19.232Z,85.07
2019-04-10T01:13:47.457Z,87.80
2019-04-10T01:16:16.409Z,84.80
2019-04-10T01:18:45.683Z,87.30
2019-04-10T01:21:14.480Z,83.70
2019-04-10T01:23:42.556Z,86.70
2019-04-10T01:26:10.734Z,86.20
2019-04-10T01:28:38.786Z,86.30
2019-04-10T01:31:06.847Z,86.90
2019-04-10T01:33:34.766Z,84.27
2019-04-10T01:36:02.872Z,85.37
2019-04-10T01:38:30.787Z,91.70
2019-04-10T01:40:59.428Z,93.00
2019-04-10T01:43:27.453Z,93.50
2019-04-10T01:45:55.411Z,92.47
2019-04-10T01:48:23.834Z,93.73
2019-04-10T01:50:52.827Z,95.97
2019-04-10T01:53:21.774Z,96.97
2019-04-10T01:55:49.870Z,94.77
2019-04-10T01:58:19.838Z,89.67
2019-04-10T02:00:56.257Z,93.37
2019-04-10T02:03:24.324Z,88.97
2019-04-10T02:05:52.627Z,88.63
2019-04-10T02:08:21.519Z,90.57
2019-04-10T02:10:50.151Z,89.63
2019-04-10T02:13:19.146Z,90.90
2019-04-10T02:15:47.419Z,90.43
2019-04-10T02:18:15.408Z,91.00
2019-04-10T02:20:43.481Z,87.40
2019-04-10T02:23:12.236Z,89.93
2019-04-10T02:25:41.073Z,90.50
2019-04-10T02:28:09.319Z,88.87
2019-04-10T02:30:39.059Z,91.40
2019-04-10T02:33:08.396Z,94.53
2019-04-10T02:35:37.842Z,90.77
2019-04-10T02:38:25.964Z,97.33
2019-04-10T02:40:37.335Z,90.20
2019-04-10T02:43:07.351Z,89.57
2019-04-10T02:45:36.548Z,87.67
2019-04-10T02:48:05.913Z,87.67
2019-04-10T02:50:35.444Z,88.60
2019-04-10T02:53:05.373Z,87.70
2019-04-10T02:55:33.447Z,89.53
2019-04-10T02:58:02.520Z,85.87
2019-04-10T03:00:30.813Z,90.10
2019-04-10T03:02:59.279Z,85.97
2019-04-10T03:05:27.593Z,88.17
2019-04-10T03:07:55.918Z,89.20
2019-04-10T03:10:33.691Z,89.47
2019-04-10T03:12:54.448Z,88.30
2019-04-10T03:15:23.209Z,88.27
2019-04-10T03:17:51.211Z,91.83
2019-04-10T03:20:20.371Z,90.87
2019-04-10T03:22:49.286Z,86.97
2019-04-10T03:25:18.274Z,89.80
2019-04-10T03:27:47.112Z,90.07
2019-04-10T03:30:15.540Z,89.50
2019-04-10T03:33:10.876Z,89.53
2019-04-10T03:35:43.085Z,88.77
2019-04-10T03:38:11.952Z,87.73
2019-04-10T03:40:39.997Z,89.97
2019-04-10T03:43:07.997Z,88.00
2019-04-10T03:45:36.951Z,88.37
2019-04-10T03:48:06.269Z,87.47
2019-04-10T03:50:34.384Z,88.47
2019-04-10T03:53:02.355Z,92.00
2019-04-10T03:55:30.393Z,88.20
2019-04-10T03:57:58.698Z,88.07
2019-04-10T04:00:27.798Z,87.37
2019-04-10T04:02:56.062Z,92.97
2019-04-10T04:05:24.098Z,89.63
2019-04-10T04:07:52.082Z,86.70
2019-04-10T04:10:20.499Z,94.03
2019-04-10T04:12:48.613Z,94.50
2019-04-10T04:15:17.714Z,90.43
2019-04-10T04:17:46.511Z,88.57
2019-04-10T04:20:14.837Z,90.33
2019-04-10T04:22:43.115Z,88.17
2019-04-10T04:25:11.430Z,89.20
2019-04-10T04:27:39.894Z,88.23
2019-04-10T04:30:08.462Z,87.80
2019-04-10T04:32:37.685Z,92.50
2019-04-10T04:35:06.019Z,92.20
2019-04-10T04:37:35.764Z,90.80
2019-04-10T04:40:05.476Z,93.30
2019-04-10T04:42:33.677Z,93.67
2019-04-10T04:45:01.770Z,94.83
2019-04-10T04:47:30.912Z,88.70
2019-04-10T04:49:59.198Z,89.97
2019-04-10T04:52:27.926Z,92.03
2019-04-10T04:54:55.993Z,90.60
2019-04-10T04:57:24.559Z,90.77
2019-04-10T04:59:52.718Z,89.60
2019-04-10T05:02:21.842Z,94.20
2019-04-10T05:04:50.098Z,95.97
2019-04-10T05:07:18.096Z,94.50
2019-04-10T05:09:46.205Z,90.87
2019-04-10T05:12:14.246Z,91.87
2019-04-10T05:14:42.296Z,93.77
2019-04-10T05:17:10.356Z,92.93
2019-04-10T05:19:38.391Z,93.47
2019-04-10T05:22:06.414Z,94.03
2019-04-10T05:24:34.459Z,93.07
2019-04-10T05:27:02.473Z,92.77
2019-04-10T05:29:31.150Z,92.90
2019-04-10T05:31:59.331Z,94.80
2019-04-10T05:34:27.610Z,92.40
2019-04-10T05:36:56.763Z,94.27
2019-04-10T05:39:24.876Z,94.27
2019-04-10T05:41:52.939Z,93.83
2019-04-10T05:44:21.021Z,94.57
2019-04-10T05:46:49.241Z,93.80
2019-04-10T05:49:17.177Z,94.77
2019-04-10T05:51:45.747Z,96.03
2019-04-10T05:54:14.912Z,95.80
2019-04-10T05:56:43.033Z,96.23
2019-04-10T05:59:13.204Z,97.23
2019-04-10T06:01:43.191Z,101.47
2019-04-10T06:04:11.527Z,97.10
2019-04-10T06:06:40.809Z,99.40
2019-04-10T06:09:09.243Z,101.60
2019-04-10T06:11:37.394Z,101.77
2019-04-10T06:14:05.462Z,96.63
2019-04-10T06:16:34.322Z,93.70
2019-04-10T06:19:02.312Z,99.37
2019-04-10T06:21:31.312Z,104.70
2019-04-10T06:24:00.518Z,98.07
2019-04-10T06:26:29.897Z,102.90
2019-04-10T06:28:58.937Z,104.67
2019-04-10T06:31:27.040Z,104.73
2019-04-10T06:33:56.228Z,99.90
2019-04-10T06:36:25.103Z,101.97
2019-04-10T06:38:53.157Z,109.83
2019-04-10T06:41:22.189Z,112.60
2019-04-10T06:43:50.290Z,108.40
2019-04-10T06:46:18.443Z,104.33
2019-04-10T06:48:46.425Z,104.77
2019-04-10T06:51:15.665Z,100.50
2019-04-10T06:53:44.941Z,101.57
2019-04-10T06:56:13.245Z,100.23
2019-04-10T06:58:42.364Z,104.83
2019-04-10T07:01:10.477Z,100.33
2019-04-10T07:03:49.433Z,104.90
2019-04-10T07:06:15.592Z,102.27
2019-04-10T07:08:38.837Z,102.47
2019-04-10T07:11:10.239Z,103.40
2019-04-10T07:13:39.897Z,107.30
2019-04-10T07:16:06.338Z,103.33
2019-04-10T07:18:37.182Z,105.27
2019-04-10T07:21:06.306Z,104.57
2019-04-10T07:23:34.508Z,104.10
2019-04-10T07:26:03.813Z,103.43
2019-04-10T07:28:31.919Z,108.20
2019-04-10T07:31:04.995Z,102.53
2019-04-10T07:33:30.790Z,102.00
2019-04-10T07:35:59.251Z,104.47
2019-04-10T07:38:27.243Z,103.93
2019-04-10T07:40:55.204Z,104.07
2019-04-10T07:43:27.203Z,109.37
2019-04-10T07:45:56.686Z,105.00
2019-04-10T07:48:22.609Z,105.87
2019-04-10T07:50:51.552Z,103.17
2019-04-10T07:53:19.600Z,100.87
2019-04-10T07:56:00.463Z,103.10
2019-04-10T07:58:19.506Z,101.63
2019-04-10T08:00:49.281Z,103.40
2019-04-10T08:03:18.860Z,100.47
2019-04-10T08:05:48.056Z,105.17
2019-04-10T08:08:17.132Z,102.67
2019-04-10T08:10:45.167Z,108.00
2019-04-10T08:13:14.071Z,110.80
2019-04-10T08:15:42.053Z,107.30
2019-04-10T08:18:10.322Z,103.80
2019-04-10T08:20:38.280Z,104.40
2019-04-10T08:23:07.516Z,101.00
2019-04-10T08:25:36.022Z,100.37
2019-04-10T08:28:03.998Z,105.27
2019-04-10T08:30:32.191Z,103.27
2019-04-10T08:33:01.654Z,100.40
2019-04-10T08:35:31.411Z,99.17
2019-04-10T08:37:59.597Z,97.60
2019-04-10T08:40:27.898Z,103.93
2019-04-10T08:42:56.113Z,100.93
2019-04-10T08:45:25.177Z,107.20
2019-04-10T08:47:53.694Z,101.90
2019-04-10T08:50:21.863Z,101.90
2019-04-10T08:52:49.838Z,97.80
2019-04-10T08:55:17.883Z,97.73
2019-04-10T08:57:45.929Z,99.10
2019-04-10T09:00:13.953Z,99.47
2019-04-10T09:02:42.369Z,102.90
2019-04-10T09:05:11.269Z,99.40
2019-04-10T09:07:40.069Z,98.20
2019-04-10T09:10:08.325Z,98.87
2019-04-10T09:12:36.325Z,99.30
2019-04-10T09:15:05.462Z,101.03
2019-04-10T09:17:33.526Z,100.20
2019-04-10T09:20:02.629Z,105.50
2019-04-10T09:22:49.063Z,103.83
2019-04-10T09:25:00.760Z,104.07
2019-04-10T09:27:28.958Z,113.93
2019-04-10T09:29:57.233Z,106.20
2019-04-10T09:32:25.119Z,107.47
2019-04-10T09:34:54.315Z,117.17
2019-04-10T09:37:22.697Z,131.13
2019-04-10T09:39:52.368Z,110.90
2019-04-10T09:42:21.427Z,108.37
2019-04-10T09:44:50.656Z,109.07
2019-04-10T09:47:19.016Z,108.57
2019-04-10T09:49:47.212Z,113.80
2019-04-10T09:52:15.299Z,110.70
2019-04-10T09:54:43.296Z,109.63
2019-04-10T09:57:11.688Z,102.03
2019-04-10T09:59:41.079Z,106.20
2019-04-10T10:02:09.295Z,105.73
2019-04-10T10:04:37.631Z,102.63
2019-04-10T10:07:06.534Z,99.17
2019-04-10T10:09:34.722Z,106.70
2019-04-10T10:12:03.153Z,102.57
2019-04-10T10:14:33.226Z,107.27
2019-04-10T10:17:01.232Z,99.90
2019-04-10T10:19:30.094Z,101.83
2019-04-10T10:22:00.584Z,99.67
2019-04-10T10:24:28.773Z,98.10
2019-04-10T10:26:57.757Z,108.90
2019-04-10T10:29:26.070Z,103.40
2019-04-10T10:31:55.077Z,101.57
2019-04-10T10:34:23.273Z,102.73
2019-04-10T10:36:53.150Z,102.80
2019-04-10T10:39:21.167Z,104.60
2019-04-10T10:41:49.431Z,105.57
2019-04-10T10:44:17.435Z,105.50
2019-04-10T10:46:45.338Z,107.87
2019-04-10T10:49:13.435Z,108.27
2019-04-10T10:51:42.543Z,106.73
2019-04-10T10:54:10.698Z,107.70
2019-04-10T10:56:38.748Z,105.70
2019-04-10T10:59:06.710Z,109.67
2019-04-10T11:01:35.823Z,106.60
2019-04-10T11:04:04.722Z,106.03
2019-04-10T11:06:33.144Z,108.33
2019-04-10T11:09:01.973Z,111.37
2019-04-10T11:11:30.748Z,106.20
2019-04-10T11:13:59.005Z,107.13
2019-04-10T11:16:27.189Z,107.77
2019-04-10T11:18:55.327Z,106.90
2019-04-10T11:21:24.682Z,103.83
2019-04-10T11:23:53.241Z,102.57
2019-04-10T11:26:24.012Z,105.60
2019-04-10T11:28:50.958Z,105.17
2019-04-10T11:31:19.043Z,106.17
2019-04-10T11:33:51.992Z,111.70
2019-04-10T11:36:17.578Z,117.37
2019-04-10T11:38:46.586Z,129.73
2019-04-10T11:41:14.977Z,102.47
2019-04-10T11:43:44.621Z,92.60
2019-04-10T11:46:13.576Z,91.47
2019-04-10T11:48:45.071Z,93.00
2019-04-10T11:51:13.255Z,93.57
2019-04-10T11:53:44.483Z,91.97
2019-04-10T11:56:11.627Z,91.20
2019-04-10T11:58:48.988Z,98.67
2019-04-10T12:01:10.548Z,92.60
2019-04-10T12:03:43.402Z,92.87
2019-04-10T12:06:08.307Z,93.23
2019-04-10T12:09:05.674Z,92.50
2019-04-10T12:11:10.800Z,95.53
2019-04-10T12:13:36.584Z,93.47
2019-04-10T12:16:05.445Z,95.40
2019-04-10T12:18:35.064Z,96.67
2019-04-10T12:21:03.433Z,95.87
2019-04-10T12:23:32.483Z,93.80
2019-04-10T12:26:01.256Z,94.57
2019-04-10T12:28:29.855Z,95.17
2019-04-10T12:30:57.895Z,96.30
2019-04-10T12:33:27.573Z,94.10
2019-04-10T12:35:56.168Z,95.77
2019-04-10T12:38:24.246Z,92.87
2019-04-10T12:40:52.949Z,96.60
2019-04-10T12:43:20.969Z,96.67
2019-04-10T12:45:49.278Z,109.30
2019-04-10T12:48:17.338Z,97.67
2019-04-10T12:50:45.456Z,99.27
2019-04-10T12:53:13.595Z,96.77
2019-04-10T12:55:41.881Z,100.57
2019-04-10T12:58:13.664Z,100.10
2019-04-10T13:00:41.062Z,103.03
2019-04-10T13:03:09.264Z,106.00
2019-04-10T13:05:37.534Z,105.53
2019-04-10T13:08:15.851Z,109.37
2019-04-10T13:10:35.809Z,109.87
2019-04-10T13:13:04.126Z,105.97
2019-04-10T13:15:32.166Z,107.10
2019-04-10T13:18:00.338Z,107.87
2019-04-10T13:20:29.405Z,116.53
2019-04-10T13:22:58.289Z,108.07
2019-04-10T13:25:26.393Z,110.17
2019-04-10T13:27:54.910Z,107.80
2019-04-10T13:30:22.862Z,108.50
2019-04-10T13:32:51.934Z,107.00
2019-04-10T13:35:20.116Z,109.30
2019-04-10T13:37:48.191Z,105.37
2019-04-10T13:40:16.320Z,104.67
2019-04-10T13:42:45.296Z,106.83
2019-04-10T13:45:15.875Z,105.13
2019-04-10T13:47:44.911Z,107.67
2019-04-10T13:50:13.268Z,111.20
2019-04-10T13:52:44.608Z,108.90
2019-04-10T13:55:12.821Z,110.23
2019-04-10T13:57:40.851Z,110.30
2019-04-10T14:00:11.454Z,106.60
2019-04-10T14:02:39.573Z,102.90
2019-04-10T14:05:09.054Z,104.73
2019-04-10T14:07:37.110Z,103.13
2019-04-10T14:10:07.083Z,103.10
2019-04-10T14:12:35.368Z,100.17
2019-04-10T14:15:04.910Z,102.47
2019-04-10T14:17:33.346Z,99.97
2019-04-10T14:20:02.775Z,101.10
2019-04-10T14:22:31.531Z,103.30
2019-04-10T14:24:59.675Z,101.33
2019-04-10T14:27:30.093Z,106.33
2019-04-10T14:29:58.680Z,104.00
2019-04-10T14:32:31.381Z,103.90
2019-04-10T14:34:59.548Z,101.53
2019-04-10T14:37:27.690Z,101.80
2019-04-10T14:39:55.947Z,107.20
2019-04-10T14:42:24.534Z,106.20
2019-04-10T14:44:53.092Z,105.97
2019-04-10T14:47:21.845Z,103.27
2019-04-10T14:49:49.820Z,102.00
2019-04-10T14:52:18.929Z,101.30
2019-04-10T14:54:48.164Z,102.03
2019-04-10T14:57:16.929Z,107.27
2019-04-10T14:59:44.952Z,109.80
2019-04-10T15:02:12.861Z,105.67
2019-04-10T15:04:41.482Z,106.50
2019-04-10T15:07:10.166Z,106.23
2019-04-10T15:09:38.293Z,106.37
2019-04-10T15:12:07.036Z,110.00
2019-04-10T15:14:37.396Z,105.80
2019-04-10T15:17:06.635Z,104.73
2019-04-10T15:19:36.342Z,107.70
2019-04-10T15:22:04.900Z,105.07
2019-04-10T15:24:33.344Z,109.43
2019-04-10T15:27:01.326Z,106.63
2019-04-10T15:29:30.324Z,108.30
2019-04-10T15:31:58.544Z,109.53
2019-04-10T15:34:26.563Z,106.70
2019-04-10T15:36:56.259Z,105.67
2019-04-10T15:39:32.088Z,105.53
2019-04-10T15:41:55.238Z,103.70
2019-04-10T15:44:23.743Z,97.87
2019-04-10T15:46:51.823Z,96.47
2019-04-10T15:49:19.806Z,95.27
2019-04-10T15:51:47.868Z,92.77
2019-04-10T15:54:15.992Z,96.57
2019-04-10T15:56:44.430Z,97.80
2019-04-10T15:59:12.630Z,94.40
2019-04-10T16:01:41.347Z,93.83
2019-04-10T16:04:09.826Z,94.50
2019-04-10T16:06:37.873Z,92.73
2019-04-10T16:09:07.211Z,94.27
2019-04-10T16:11:54.374Z,91.30
2019-04-10T16:14:24.510Z,91.17
2019-04-10T16:17:17.256Z,89.47
2019-04-10T16:19:51.296Z,90.00
2019-04-10T16:22:48.867Z,89.67
2019-04-10T16:25:36.207Z,86.80
2019-04-10T16:28:06.161Z,91.57
2019-04-10T16:30:34.956Z,88.13
2019-04-10T16:33:03.380Z,90.50
2019-04-10T16:35:33.672Z,87.43
2019-04-10T16:38:02.231Z,90.70
2019-04-10T16:40:30.297Z,85.40
2019-04-10T16:42:59.333Z,84.97
2019-04-10T16:45:28.442Z,87.17
2019-04-10T16:47:56.719Z,84.63
2019-04-10T16:50:25.773Z,85.07
2019-04-10T16:52:53.846Z,84.60
2019-04-10T16:55:22.763Z,82.97
2019-04-10T16:57:51.415Z,82.13
2019-04-10T17:00:20.716Z,85.40
2019-04-10T17:02:50.573Z,81.27
2019-04-10T17:05:18.764Z,85.43
2019-04-10T17:07:47.466Z,84.60
2019-04-10T17:10:20.389Z,87.80
2019-04-10T17:12:46.335Z,90.87
2019-04-10T17:15:15.586Z,97.50
2019-04-10T17:17:44.459Z,92.97
2019-04-10T17:20:12.540Z,113.00
2019-04-10T17:22:45.303Z,96.07
2019-04-10T17:25:11.644Z,84.17
2019-04-10T17:27:39.738Z,83.30
2019-04-10T17:30:09.455Z,85.03
2019-04-10T17:32:38.455Z,85.20
2019-04-10T17:35:09.385Z,86.10
2019-04-10T17:37:38.331Z,86.60
2019-04-10T17:40:08.264Z,86.30
2019-04-10T17:42:37.694Z,83.63
2019-04-10T17:45:06.805Z,85.63
2019-04-10T17:47:34.811Z,80.20
2019-04-10T17:50:03.701Z,83.00
2019-04-10T17:52:34.694Z,81.70
2019-04-10T17:55:01.406Z,79.07
2019-04-10T17:57:38.093Z,80.63
2019-04-10T17:59:59.269Z,82.70
2019-04-10T18:02:27.512Z,78.37
2019-04-10T18:04:56.046Z,77.80
2019-04-10T18:07:24.128Z,79.50
2019-04-10T18:09:52.198Z,78.90
2019-04-10T18:12:20.273Z,77.87
2019-04-10T18:14:49.214Z,78.17
2019-04-10T18:17:18.478Z,79.03
2019-04-10T18:19:46.557Z,79.90
2019-04-10T18:22:14.573Z,83.00
2019-04-10T18:24:42.565Z,82.53
2019-04-10T18:27:10.532Z,79.27
2019-04-10T18:29:39.340Z,80.47
2019-04-10T18:32:07.550Z,77.33
2019-04-10T18:34:35.645Z,79.90
2019-04-10T18:37:04.405Z,78.57
2019-04-10T18:39:34.565Z,78.40
2019-04-10T18:42:03.518Z,78.70
2019-04-10T18:44:31.536Z,78.50
2019-04-10T18:47:00.664Z,77.63
2019-04-10T18:49:29.509Z,79.20
2019-04-10T18:51:58.418Z,77.67
2019-04-10T18:54:26.985Z,77.50
2019-04-10T18:56:55.680Z,77.47
2019-04-10T18:59:34.423Z,78.37
2019-04-10T19:02:28.839Z,80.40
2019-04-10T19:05:18.074Z,78.40
2019-04-10T19:07:46.273Z,77.73
2019-04-10T19:10:14.420Z,78.80
2019-04-10T19:12:43.219Z,80.60
2019-04-10T19:15:12.669Z,80.40
2019-04-10T19:17:41.966Z,80.97
2019-04-10T19:20:11.243Z,79.90
2019-04-10T19:22:40.140Z,82.60
2019-04-10T19:25:08.543Z,81.57
2019-04-10T19:27:36.525Z,81.97
2019-04-10T19:30:06.808Z,82.47
2019-04-10T19:32:37.514Z,83.43
2019-04-10T19:35:06.621Z,82.83
2019-04-10T19:37:34.730Z,84.47
2019-04-10T19:40:03.476Z,86.20
2019-04-10T19:42:31.541Z,82.17
2019-04-10T19:44:59.515Z,80.70
2019-04-10T19:47:28.438Z,81.97
2019-04-10T19:49:57.133Z,80.77
2019-04-10T19:52:26.429Z,81.47
2019-04-10T19:54:55.471Z,80.60
2019-04-10T19:57:23.772Z,81.97
2019-04-10T19:59:52.314Z,79.93
2019-04-10T20:02:20.278Z,82.60
2019-04-10T20:04:48.566Z,84.67
2019-04-10T20:07:16.736Z,80.83
2019-04-10T20:09:44.726Z,81.90
2019-04-10T20:12:12.924Z,79.47
2019-04-10T20:14:40.987Z,81.83
2019-04-10T20:17:08.939Z,83.70
2019-04-10T20:19:36.853Z,80.67
2019-04-10T20:22:06.140Z,81.00
2019-04-10T20:24:34.667Z,82.60
2019-04-10T20:27:03.543Z,81.17
2019-04-10T20:29:31.959Z,83.17
2019-04-10T20:31:59.970Z,81.47
2019-04-10T20:34:27.966Z,82.70
2019-04-10T20:36:55.968Z,81.43
2019-04-10T20:39:25.278Z,83.20
2019-04-10T20:41:55.556Z,84.10
2019-04-10T20:44:23.147Z,81.57
2019-04-10T20:46:51.128Z,85.40
2019-04-10T20:49:20.327Z,84.80
2019-04-10T20:51:49.022Z,82.40
2019-04-10T20:54:18.205Z,84.20
2019-04-10T20:56:46.527Z,79.90
2019-04-10T20:59:15.445Z,84.00
2019-04-10T21:01:44.832Z,86.10
2019-04-10T21:04:13.031Z,82.87
2019-04-10T21:06:43.264Z,85.30
2019-04-10T21:09:11.714Z,83.00
2019-04-10T21:11:40.053Z,84.97
2019-04-10T21:14:09.164Z,85.27
2019-04-10T21:16:37.865Z,85.47
2019-04-10T21:19:06.736Z,81.70
2019-04-10T21:21:34.932Z,82.87
2019-04-10T21:24:03.184Z,83.33
2019-04-10T21:26:32.468Z,83.47
2019-04-10T21:29:00.483Z,87.50
2019-04-10T21:32:00.971Z,86.20
2019-04-10T21:34:40.412Z,90.50
2019-04-10T21:37:08.348Z,88.20
2019-04-10T21:39:36.424Z,90.57
2019-04-10T21:42:15.634Z,92.03
2019-04-10T21:44:35.138Z,103.73
2019-04-10T21:47:03.452Z,95.30
2019-04-10T21:49:32.359Z,93.20
2019-04-10T21:52:00.380Z,91.80
2019-04-10T21:54:29.274Z,93.47
2019-04-10T21:56:57.663Z,98.50
2019-04-10T21:59:26.831Z,92.10
2019-04-10T22:01:55.403Z,94.20
2019-04-10T22:04:23.383Z,91.00
2019-04-10T22:07:16.674Z,90.77
2019-04-10T22:10:07.753Z,88.23
2019-04-10T22:12:42.230Z,89.87
2019-04-10T22:15:12.905Z,89.97
2019-04-10T22:17:40.859Z,92.73
2019-04-10T22:20:09.612Z,86.73
2019-04-10T22:22:37.772Z,86.17
2019-04-10T22:25:07.409Z,81.97
2019-04-10T22:27:35.924Z,84.47
2019-04-10T22:30:05.105Z,83.53
2019-04-10T22:32:33.152Z,86.37
2019-04-10T22:35:01.165Z,83.77
2019-04-10T22:37:29.868Z,85.53
2019-04-10T22:39:58.690Z,87.67
2019-04-10T22:42:36.618Z,87.17
2019-04-10T22:44:56.319Z,85.67
2019-04-10T22:47:25.326Z,97.00
2019-04-10T22:49:53.609Z,84.93
2019-04-10T22:52:21.928Z,89.73
2019-04-10T22:54:50.882Z,85.33
2019-04-10T22:57:18.946Z,90.47
2019-04-10T22:59:48.831Z,89.20
2019-04-10T23:02:16.909Z,95.20
2019-04-10T23:04:44.943Z,88.17
2019-04-10T23:07:13.508Z,92.37
2019-04-10T23:09:41.453Z,89.20
2019-04-10T23:12:09.868Z,88.60
2019-04-10T23:14:38.660Z,94.00
2019-04-10T23:17:06.665Z,91.40
2019-04-10T23:19:34.760Z,89.63
2019-04-10T23:22:03.123Z,92.90
2019-04-10T23:24:31.804Z,93.00
2019-04-10T23:26:59.794Z,94.40
2019-04-10T23:29:29.295Z,92.17
2019-04-10T23:31:58.282Z,94.30
2019-04-10T23:34:26.332Z,95.50
2019-04-10T23:36:54.341Z,99.07
2019-04-10T23:39:22.391Z,102.00
2019-04-10T23:41:52.122Z,93.40
2019-04-10T23:44:20.698Z,99.50
2019-04-10T23:46:48.745Z,97.37
2019-04-10T23:49:17.357Z,100.93
2019-04-10T23:51:45.463Z,97.50
2019-04-10T23:54:13.416Z,96.33
2019-04-10T23:56:41.926Z,98.60
2019-04-10T23:59:10.726Z,98.03
